Time;durP1;ratioP1;P1;durP2;ratioP2;P2;SDS_P1;SDS_P2;PMS_P1;PMS_P2;Temp;Humidity;BMP_temperature;BMP_pressure;BME280_temperature;BME280_humidity;BME280_pressure;Samples;Min_cycle;Max_cycle;Signal;HPM_P1;HPM_P2
2024/03/29 00:00:44;;;;;;;8.35;2.10;;;409.80;2252.80;;;;;;5092057;28;20053;-73
2024/03/29 00:03:10;;;;;;;7.22;2.92;;;409.70;2278.40;;;;;;5087628;28;20021;-73
2024/03/29 00:05:37;;;;;;;6.05;1.85;;;409.70;2304.00;;;;;;5092900;28;20051;-73
2024/03/29 00:08:06;;;;;;;7.22;2.15;;;409.70;2278.40;;;;;;5101020;28;20023;-73
2024/03/29 00:10:36;;;;;;;11.38;1.92;;;409.70;2278.40;;;;;;5100544;28;20063;-74
2024/03/29 00:13:01;;;;;;;10.18;2.25;;;409.70;2278.40;;;;;;5082292;28;20037;-74
2024/03/29 00:15:27;;;;;;;10.50;2.97;;;409.70;2278.40;;;;;;5090814;28;20023;-74
2024/03/29 00:17:53;;;;;;;9.10;2.22;;;409.70;2304.00;;;;;;5095373;28;20407;-74
2024/03/29 00:20:21;;;;;;;4.32;2.53;;;409.80;2304.00;;;;;;5095639;28;20028;-74
2024/03/29 00:22:47;;;;;;;4.75;2.10;;;409.70;2329.60;;;;;;5094464;28;20023;-74
2024/03/29 00:25:13;;;;;;;8.75;2.17;;;409.70;2355.20;;;;;;5095371;28;20080;-73
2024/03/29 00:27:39;;;;;;;4.55;2.03;;;409.60;2355.20;;;;;;5095310;28;20028;-73
2024/03/29 00:30:05;;;;;;;6.43;1.90;;;384.90;2329.60;;;;;;5095145;28;20040;-74
2024/03/29 00:32:31;;;;;;;7.07;2.75;;;384.90;2329.60;;;;;;5095141;28;20024;-73
2024/03/29 00:34:57;;;;;;;7.35;2.05;;;384.90;2329.60;;;;;;5105466;28;20103;-74
2024/03/29 00:37:24;;;;;;;5.70;1.85;;;384.90;2329.60;;;;;;5097638;28;20449;-74
2024/03/29 00:39:50;;;;;;;5.78;2.20;;;384.90;2329.60;;;;;;5095025;28;20020;-74
2024/03/29 00:42:16;;;;;;;4.65;1.77;;;409.60;2355.20;;;;;;5100155;28;20102;-73
2024/03/29 00:44:43;;;;;;;6.93;1.92;;;384.90;2329.60;;;;;;5106163;28;20024;-73
2024/03/29 00:47:09;;;;;;;8.98;2.20;;;409.60;2355.20;;;;;;5107889;28;20055;-73
2024/03/29 00:49:35;;;;;;;5.30;2.08;;;409.70;2355.20;;;;;;5076189;28;20111;-75
2024/03/29 00:52:02;;;;;;;5.72;1.83;;;409.70;2355.20;;;;;;5098517;28;20131;-74
2024/03/29 00:54:28;;;;;;;8.68;2.30;;;409.70;2355.20;;;;;;5102971;28;20024;-74
2024/03/29 00:56:54;;;;;;;10.82;1.73;;;409.80;2355.20;;;;;;5093970;28;20412;-75
2024/03/29 00:59:20;;;;;;;8.13;1.83;;;409.90;2355.20;;;;;;5104142;28;20020;-74
2024/03/29 01:01:46;;;;;;;5.38;1.77;;;409.90;2355.20;;;;;;5114753;28;20028;-74
2024/03/29 01:04:12;;;;;;;10.52;1.67;;;410.00;2355.20;;;;;;5086471;28;20039;-74
2024/03/29 01:06:40;;;;;;;6.53;2.90;;;410.00;2355.20;;;;;;5107723;28;20028;-75
2024/03/29 01:09:06;;;;;;;5.72;2.13;;;410.10;2355.20;;;;;;5103974;28;20024;-75
2024/03/29 01:11:32;;;;;;;7.40;2.00;;;410.20;2355.20;;;;;;5113680;28;20032;-74
2024/03/29 01:13:58;;;;;;;5.90;1.58;;;410.20;2355.20;;;;;;5104566;28;20052;-74
2024/03/29 01:16:24;;;;;;;4.38;1.73;;;410.20;2304.00;;;;;;5104863;28;20020;-75
2024/03/29 01:18:52;;;;;;;5.03;1.80;;;410.30;2304.00;;;;;;5083534;28;20393;-74
2024/03/29 01:21:18;;;;;;;4.85;1.80;;;410.30;2329.60;;;;;;5094113;28;20027;-74
2024/03/29 01:23:44;;;;;;;5.18;2.10;;;410.40;2355.20;;;;;;5094432;28;20020;-74
2024/03/29 01:26:14;;;;;;;9.68;2.30;;;410.10;2355.20;;;;;;5107022;28;20050;-73
2024/03/29 01:28:40;;;;;;;6.97;2.00;;;409.90;2355.20;;;;;;5086456;28;20382;-74
2024/03/29 01:31:06;;;;;;;8.07;2.28;;;409.70;2355.20;;;;;;5114144;28;20031;-74
2024/03/29 01:33:36;;;;;;;5.93;1.65;;;384.70;2329.60;;;;;;5103498;28;20024;-74
2024/03/29 01:36:02;;;;;;;6.97;1.65;;;384.40;2329.60;;;;;;5098483;28;20019;-75
2024/03/29 01:38:28;;;;;;;4.55;1.60;;;384.00;2329.60;;;;;;5102206;28;20054;-74
2024/03/29 01:40:54;;;;;;;5.43;1.30;;;359.20;2329.60;;;;;;5098533;28;20023;-74
2024/03/29 01:43:20;;;;;;;3.28;1.52;;;359.00;2329.60;;;;;;5114125;28;20024;-75
2024/03/29 01:45:49;;;;;;;1.20;0.70;;;358.70;2329.60;;;;;;5095320;28;20031;-74
2024/03/29 01:48:17;;;;;;;2.83;0.85;;;358.50;2329.60;;;;;;5081785;28;20121;-74
2024/03/29 01:50:44;;;;;;;2.22;0.82;;;358.40;2329.60;;;;;;5098053;28;20077;-74
2024/03/29 01:53:10;;;;;;;1.02;0.52;;;333.70;2329.60;;;;;;5113964;28;20028;-74
2024/03/29 01:55:36;;;;;;;2.50;0.40;;;333.60;2329.60;;;;;;5108318;28;20558;-74
2024/03/29 01:58:02;;;;;;;0.75;0.40;;;333.50;2329.60;;;;;;5081093;28;20028;-74
2024/03/29 02:00:30;;;;;;;0.98;0.40;;;333.50;2329.60;;;;;;5091949;28;20074;-75
2024/03/29 02:02:57;;;;;;;2.13;0.40;;;333.40;2329.60;;;;;;5093391;28;20020;-74
2024/03/29 02:05:24;;;;;;;0.17;0.17;;;333.30;2329.60;;;;;;5106922;28;20024;-74
2024/03/29 02:07:51;;;;;;;1.23;0.30;;;333.40;2329.60;;;;;;5106310;28;20033;-74
2024/03/29 02:10:17;;;;;;;0.98;0.45;;;333.30;2329.60;;;;;;5112348;28;20459;-73
2024/03/29 02:12:42;;;;;;;0.52;0.30;;;333.20;2329.60;;;;;;5113568;28;20499;-75
2024/03/29 02:15:08;;;;;;;0.68;0.30;;;333.20;2329.60;;;;;;5094711;28;20020;-73
2024/03/29 02:17:34;;;;;;;0.75;0.47;;;333.20;2329.60;;;;;;5100314;28;20054;-74
2024/03/29 02:20:00;;;;;;;0.85;0.38;;;333.20;2329.60;;;;;;5087212;28;20082;-75
2024/03/29 02:22:29;;;;;;;1.70;0.90;;;333.10;2329.60;;;;;;5085565;28;20039;-74
2024/03/29 02:24:55;;;;;;;0.68;0.40;;;333.10;2329.60;;;;;;5113066;28;20484;-76
2024/03/29 02:27:22;;;;;;;0.73;0.45;;;333.00;2329.60;;;;;;5100190;28;20082;-73
2024/03/29 02:29:48;;;;;;;1.40;0.45;;;333.00;2329.60;;;;;;5093275;28;20125;-74
2024/03/29 02:32:14;;;;;;;0.75;0.40;;;333.10;2329.60;;;;;;5105991;28;20115;-73
2024/03/29 02:34:40;;;;;;;1.02;0.55;;;333.20;2329.60;;;;;;5113144;28;20098;-74
2024/03/29 02:37:06;;;;;;;0.30;0.30;;;333.20;2329.60;;;;;;5113270;28;20376;-74
2024/03/29 02:39:32;;;;;;;0.50;0.25;;;333.20;2329.60;;;;;;5106494;28;20027;-74
2024/03/29 02:41:58;;;;;;;0.43;0.22;;;333.30;2329.60;;;;;;5106311;28;20026;-74
2024/03/29 02:44:23;;;;;;;1.52;0.60;;;333.30;2329.60;;;;;;5092899;28;20373;-74
2024/03/29 02:46:49;;;;;;;2.13;0.55;;;333.30;2329.60;;;;;;5079856;28;20473;-74
2024/03/29 02:49:15;;;;;;;0.75;0.45;;;333.40;2329.60;;;;;;5098999;28;20034;-74
2024/03/29 02:51:41;;;;;;;1.33;0.60;;;333.40;2329.60;;;;;;5099865;28;20024;-74
2024/03/29 02:54:07;;;;;;;0.43;0.43;;;333.20;2329.60;;;;;;5112491;28;20020;-74
2024/03/29 02:56:32;;;;;;;0.40;0.30;;;333.20;2329.60;;;;;;5113300;28;20110;-74
2024/03/29 02:58:58;;;;;;;0.38;0.30;;;333.20;2329.60;;;;;;5106225;28;20358;-74
2024/03/29 03:01:24;;;;;;;1.08;0.70;;;333.20;2329.60;;;;;;5092893;28;20050;-74
2024/03/29 03:03:50;;;;;;;0.77;0.68;;;333.10;2329.60;;;;;;5099228;28;20401;-74
2024/03/29 03:06:16;;;;;;;1.33;0.80;;;333.10;2329.60;;;;;;5113157;28;20055;-73
2024/03/29 03:11:26;;;;;;;0.45;0.43;;;333.00;2329.60;;;;;;5092053;28;20098;-74
2024/03/29 03:13:52;;;;;;;2.10;0.70;;;333.00;2329.60;;;;;;5096552;28;20044;-74
2024/03/29 03:16:18;;;;;;;2.20;0.70;;;332.90;2329.60;;;;;;5096179;28;20051;-74
2024/03/29 03:18:44;;;;;;;2.97;0.68;;;332.90;2329.60;;;;;;5096475;28;20034;-73
2024/03/29 03:21:09;;;;;;;1.10;0.63;;;308.10;2304.00;;;;;;5112242;28;20032;-73
2024/03/29 03:23:35;;;;;;;1.00;0.63;;;308.00;2304.00;;;;;;5098529;28;20019;-75
2024/03/29 03:26:05;;;;;;;1.92;0.73;;;307.90;2304.00;;;;;;5089290;28;20388;-74
2024/03/29 03:28:31;;;;;;;2.28;0.60;;;307.90;2304.00;;;;;;5097794;28;20393;-74
2024/03/29 03:30:57;;;;;;;1.05;0.82;;;308.10;2304.00;;;;;;5089145;28;20092;-75
2024/03/29 03:33:23;;;;;;;2.28;1.00;;;307.90;2304.00;;;;;;5085312;28;20047;-75
2024/03/29 03:35:49;;;;;;;1.25;0.52;;;307.90;2304.00;;;;;;5098955;28;20103;-74
2024/03/29 03:38:16;;;;;;;1.42;0.73;;;307.90;2304.00;;;;;;5116031;28;20091;-74
2024/03/29 03:40:42;;;;;;;1.00;0.65;;;307.70;2304.00;;;;;;5113450;28;20024;-75
2024/03/29 03:43:09;;;;;;;1.65;0.95;;;307.80;2304.00;;;;;;5095968;28;20025;-74
2024/03/29 03:45:38;;;;;;;0.98;0.70;;;307.60;2304.00;;;;;;5109264;28;20032;-75
2024/03/29 03:48:05;;;;;;;2.63;0.70;;;307.50;2304.00;;;;;;5106300;28;20019;-74
2024/03/29 03:50:31;;;;;;;2.28;0.70;;;307.60;2304.00;;;;;;5102404;28;20043;-74
2024/03/29 03:52:57;;;;;;;2.30;0.80;;;307.70;2304.00;;;;;;5105562;28;20476;-74
2024/03/29 03:55:23;;;;;;;0.65;0.50;;;307.70;2304.00;;;;;;5112949;28;20133;-74
2024/03/29 03:57:49;;;;;;;0.40;0.40;;;307.70;2304.00;;;;;;5105405;28;20147;-75
2024/03/29 04:00:16;;;;;;;1.42;0.85;;;307.40;2304.00;;;;;;5112659;28;20043;-74
2024/03/29 04:02:42;;;;;;;2.72;0.77;;;307.50;2304.00;;;;;;5116053;28;20015;-74
2024/03/29 04:05:08;;;;;;;0.95;0.57;;;307.50;2304.00;;;;;;5115486;28;20085;-74
2024/03/29 04:07:34;;;;;;;4.03;0.93;;;307.60;2304.00;;;;;;5116021;28;20484;-75
2024/03/29 04:10:00;;;;;;;2.22;0.75;;;307.60;2304.00;;;;;;5115694;28;20027;-74
2024/03/29 04:12:26;;;;;;;0.90;0.70;;;307.70;2304.00;;;;;;5094762;28;20052;-73
2024/03/29 04:14:52;;;;;;;9.82;1.55;;;307.70;2304.00;;;;;;5098491;28;20020;-74
2024/03/29 04:17:17;;;;;;;1.67;0.82;;;307.60;2304.00;;;;;;5105478;28;20095;-74
2024/03/29 04:19:43;;;;;;;1.80;0.75;;;307.60;2304.00;;;;;;5099102;28;20047;-74
2024/03/29 04:22:09;;;;;;;0.60;0.60;;;307.60;2304.00;;;;;;5104129;28;20042;-74
2024/03/29 04:24:35;;;;;;;5.22;1.17;;;307.70;2304.00;;;;;;5108565;28;20028;-74
2024/03/29 04:27:01;;;;;;;4.68;0.93;;;307.70;2304.00;;;;;;5095124;28;20044;-74
2024/03/29 04:29:27;;;;;;;7.70;1.27;;;307.60;2304.00;;;;;;5094906;28;20069;-74
2024/03/29 04:31:52;;;;;;;2.03;0.88;;;307.70;2304.00;;;;;;5106121;28;20124;-74
2024/03/29 04:34:18;;;;;;;4.40;0.98;;;307.70;2304.00;;;;;;5115574;28;20152;-74
2024/03/29 04:36:44;;;;;;;3.40;0.90;;;307.60;2304.00;;;;;;5115354;28;20448;-74
2024/03/29 04:39:10;;;;;;;2.10;1.20;;;307.50;2304.00;;;;;;5096565;28;20030;-74
2024/03/29 04:41:36;;;;;;;5.97;1.55;;;307.30;2304.00;;;;;;5106540;28;20028;-74
2024/03/29 04:44:02;;;;;;;3.08;1.23;;;307.20;2304.00;;;;;;5115274;28;20034;-75
2024/03/29 04:46:30;;;;;;;2.20;1.30;;;307.30;2304.00;;;;;;5114817;28;20066;-74
2024/03/29 04:48:57;;;;;;;8.57;1.08;;;307.30;2304.00;;;;;;5114422;28;20019;-75
2024/03/29 04:51:23;;;;;;;3.88;1.50;;;307.30;2304.00;;;;;;5115174;28;20114;-74
2024/03/29 04:53:48;;;;;;;4.00;2.10;;;307.30;2304.00;;;;;;5099955;28;20055;-75
2024/03/29 04:56:14;;;;;;;5.53;1.92;;;307.40;2304.00;;;;;;5114838;28;20032;-75
2024/03/29 04:58:40;;;;;;;5.63;1.80;;;307.40;2304.00;;;;;;5096871;28;20040;-73
2024/03/29 05:01:07;;;;;;;2.10;0.95;;;307.40;2304.00;;;;;;5105605;28;20020;-74
2024/03/29 05:03:32;;;;;;;2.70;1.10;;;307.20;2304.00;;;;;;5096935;28;20511;-74
2024/03/29 05:05:58;;;;;;;2.88;0.85;;;307.20;2304.00;;;;;;5086699;28;20040;-74
2024/03/29 05:08:24;;;;;;;2.45;1.33;;;307.40;2304.00;;;;;;5106815;28;20032;-74
2024/03/29 05:10:50;;;;;;;4.85;1.85;;;307.50;2304.00;;;;;;5084212;28;20487;-74
2024/03/29 05:13:17;;;;;;;2.78;0.77;;;307.40;2304.00;;;;;;5080209;28;20051;-74
2024/03/29 05:15:43;;;;;;;4.07;0.60;;;307.50;2304.00;;;;;;5105003;28;20051;-75
2024/03/29 05:18:09;;;;;;;0.85;0.60;;;307.40;2304.00;;;;;;5114485;28;20109;-74
2024/03/29 05:20:36;;;;;;;2.83;0.70;;;307.50;2304.00;;;;;;5115044;28;20024;-75
2024/03/29 05:23:02;;;;;;;1.13;0.43;;;307.60;2304.00;;;;;;5114262;28;20031;-74
2024/03/29 05:25:28;;;;;;;4.63;0.90;;;307.50;2304.00;;;;;;5102970;28;20028;-73
2024/03/29 05:27:54;;;;;;;1.60;0.80;;;307.30;2304.00;;;;;;5112272;28;20022;-73
2024/03/29 05:30:20;;;;;;;0.77;0.70;;;307.40;2304.00;;;;;;5114307;28;20110;-74
2024/03/29 05:32:45;;;;;;;2.58;0.77;;;307.50;2304.00;;;;;;5095372;28;20016;-74
2024/03/29 05:35:13;;;;;;;1.58;0.73;;;307.60;2304.00;;;;;;5105838;28;20103;-74
2024/03/29 05:37:39;;;;;;;1.38;0.77;;;307.70;2304.00;;;;;;5108696;28;20024;-74
2024/03/29 05:40:07;;;;;;;3.95;0.60;;;307.70;2304.00;;;;;;5106028;28;20543;-74
2024/03/29 05:42:35;;;;;;;2.38;1.15;;;307.40;2304.00;;;;;;5108127;28;20024;-74
2024/03/29 05:45:00;;;;;;;2.42;0.70;;;307.80;2304.00;;;;;;5106702;28;20015;-74
2024/03/29 05:47:26;;;;;;;2.22;0.90;;;307.90;2304.00;;;;;;5093925;28;20034;-73
2024/03/29 05:49:54;;;;;;;5.35;1.23;;;308.10;2304.00;;;;;;5106194;28;20044;-75
2024/03/29 05:52:23;;;;;;;2.03;0.90;;;308.10;2304.00;;;;;;5113629;28;20059;-73
2024/03/29 05:54:50;;;;;;;1.98;0.77;;;332.80;2329.60;;;;;;5113936;28;20069;-74
2024/03/29 05:57:16;;;;;;;3.08;1.80;;;332.80;2329.60;;;;;;5093866;28;20444;-75
2024/03/29 05:59:41;;;;;;;1.38;0.93;;;332.90;2329.60;;;;;;5081376;28;20504;-74
2024/03/29 06:02:07;;;;;;;1.65;1.00;;;333.00;2329.60;;;;;;5091444;28;20039;-73
2024/03/29 06:04:33;;;;;;;1.60;0.70;;;333.00;2329.60;;;;;;5088493;28;20031;-74
2024/03/29 06:07:03;;;;;;;1.58;1.05;;;333.10;2329.60;;;;;;5091180;28;20030;-74
2024/03/29 06:09:29;;;;;;;9.63;2.75;;;333.20;2329.60;;;;;;5098064;28;20545;-74
2024/03/29 06:11:56;;;;;;;2.78;1.00;;;333.30;2329.60;;;;;;5089310;28;20052;-74
2024/03/29 06:17:22;;;;;;;2.05;1.20;;;333.60;2329.60;;;;;;5083569;28;20086;-74
2024/03/29 06:19:50;;;;;;;2.45;0.80;;;333.70;2329.60;;;;;;5091417;28;20020;-74
2024/03/29 06:22:17;;;;;;;2.15;1.10;;;333.60;2329.60;;;;;;5088165;28;20082;-74
2024/03/29 06:24:44;;;;;;;8.23;1.30;;;358.60;2329.60;;;;;;5098932;28;20028;-74
2024/03/29 06:27:10;;;;;;;2.13;0.80;;;358.70;2329.60;;;;;;5092745;28;20378;-74
2024/03/29 06:29:36;;;;;;;2.83;0.80;;;358.70;2329.60;;;;;;5095548;28;20023;-73
2024/03/29 06:32:02;;;;;;;3.42;1.38;;;358.60;2329.60;;;;;;5086662;28;20039;-74
2024/03/29 06:34:31;;;;;;;1.35;1.10;;;358.80;2329.60;;;;;;5085959;28;20031;-74
2024/03/29 06:36:57;;;;;;;2.58;1.70;;;358.90;2329.60;;;;;;5084956;28;20053;-74
2024/03/29 06:39:24;;;;;;;3.78;1.63;;;359.10;2329.60;;;;;;5084864;28;20343;-74
2024/03/29 06:41:50;;;;;;;3.92;1.00;;;359.00;2329.60;;;;;;5098193;28;20473;-73
2024/03/29 06:44:16;;;;;;;1.70;0.85;;;359.00;2329.60;;;;;;5084822;28;20035;-73
2024/03/29 06:46:42;;;;;;;5.25;1.42;;;384.00;2329.60;;;;;;5093389;28;20028;-74
2024/03/29 06:49:08;;;;;;;4.13;1.10;;;384.20;2329.60;;;;;;5091381;28;20142;-73
2024/03/29 06:51:33;;;;;;;5.85;1.02;;;384.40;2329.60;;;;;;5091102;28;20036;-74
2024/03/29 06:53:59;;;;;;;2.25;0.80;;;384.60;2329.60;;;;;;5091804;28;20082;-76
2024/03/29 06:56:25;;;;;;;2.70;0.90;;;384.50;2329.60;;;;;;5089817;28;20032;-74
2024/03/29 06:58:51;;;;;;;1.55;1.20;;;384.90;2329.60;;;;;;5091080;28;20017;-75
2024/03/29 07:01:17;;;;;;;7.97;1.30;;;409.80;2355.20;;;;;;5091698;28;20024;-76
2024/03/29 07:03:43;;;;;;;1.80;0.90;;;410.00;2355.20;;;;;;5101484;28;20024;-75
2024/03/29 07:06:08;;;;;;;5.05;1.92;;;409.70;2355.20;;;;;;5104066;28;20025;-75
2024/03/29 07:08:35;;;;;;;5.20;0.90;;;409.70;2355.20;;;;;;5066771;28;20072;-74
2024/03/29 07:11:02;;;;;;;0.60;0.60;;;409.80;2355.20;;;;;;5091524;28;20016;-75
2024/03/29 07:13:32;;;;;;;4.03;1.35;;;409.70;2355.20;;;;;;5087922;28;20045;-76
2024/03/29 07:15:59;;;;;;;3.42;1.80;;;410.20;2355.20;;;;;;5087731;28;20020;-75
2024/03/29 07:18:25;;;;;;;3.85;0.98;;;410.00;2355.20;;;;;;5081645;28;20029;-75
2024/03/29 07:20:51;;;;;;;2.13;0.68;;;409.90;2355.20;;;;;;5090407;28;20025;-76
2024/03/29 07:23:17;;;;;;;3.38;0.68;;;409.90;2355.20;;;;;;5089558;28;20032;-75
2024/03/29 07:26:01;;;;;;;1.65;0.60;;;410.20;2355.20;;;;;;5097289;28;20036;-74
2024/03/29 07:28:27;;;;;;;1.48;0.70;;;435.20;2355.20;;;;;;5092954;28;20016;-74
2024/03/29 07:30:53;;;;;;;1.20;0.80;;;410.50;2355.20;;;;;;5106744;28;20393;-73
2024/03/29 07:33:23;;;;;;;2.95;1.00;;;435.80;2355.20;;;;;;5101626;28;20431;-75
2024/03/29 07:35:49;;;;;;;4.32;1.20;;;460.80;2380.80;;;;;;5099373;28;20473;-75
2024/03/29 07:38:17;;;;;;;3.38;1.48;;;461.00;2380.80;;;;;;5097536;28;20081;-76
2024/03/29 07:40:46;;;;;;;11.10;2.10;;;461.40;2380.80;;;;;;5093581;28;20028;-75
2024/03/29 07:43:13;;;;;;;3.78;1.00;;;461.60;2380.80;;;;;;5086326;28;20032;-75
2024/03/29 07:45:46;;;;;;;11.48;1.65;;;461.40;2380.80;;;;;;5088020;28;20485;-75
2024/03/29 07:48:13;;;;;;;2.38;0.88;;;461.60;2380.80;;;;;;5085344;28;20024;-75
2024/03/29 07:50:40;;;;;;;8.85;1.40;;;461.70;2380.80;;;;;;5098626;28;20181;-76
2024/03/29 07:53:06;;;;;;;3.00;0.95;;;486.50;2380.80;;;;;;5091883;28;20024;-75
2024/03/29 07:55:32;;;;;;;2.60;0.95;;;486.60;2380.80;;;;;;5096311;28;20024;-75
2024/03/29 07:57:58;;;;;;;2.85;1.17;;;486.90;2380.80;;;;;;5071153;28;20028;-77
2024/03/29 08:00:26;;;;;;;7.43;1.63;;;487.10;2380.80;;;;;;5085716;28;20033;-78
2024/03/29 08:02:53;;;;;;;5.75;1.60;;;487.30;2227.20;;;;;;5097243;28;20050;-76
2024/03/29 08:05:20;;;;;;;1.00;0.82;;;512.00;2329.60;;;;;;5088208;28;20030;-76
2024/03/29 08:07:46;;;;;;;1.83;0.98;;;512.10;2150.40;;;;;;5079023;28;20145;-76
2024/03/29 08:10:12;;;;;;;2.25;0.98;;;512.60;2176.00;;;;;;5077598;28;20050;-76
2024/03/29 08:12:38;;;;;;;3.63;1.60;;;512.60;2099.20;;;;;;5073090;28;20059;-76
2024/03/29 08:15:05;;;;;;;2.90;1.05;;;512.60;2073.60;;;;;;5088304;28;20490;-75
2024/03/29 08:17:30;;;;;;;3.83;1.42;;;512.50;2048.00;;;;;;5097375;28;20031;-77
2024/03/29 08:19:56;;;;;;;5.93;1.42;;;512.70;2150.40;;;;;;5070933;28;20033;-74
2024/03/29 08:22:22;;;;;;;4.65;1.10;;;512.70;2073.60;;;;;;5084335;28;20394;-75
2024/03/29 08:24:48;;;;;;;4.75;1.70;;;512.70;2124.80;;;;;;5088785;28;20024;-75
2024/03/29 08:27:14;;;;;;;5.72;1.52;;;487.30;2201.60;;;;;;5098670;28;20035;-75
2024/03/29 08:29:43;;;;;;;3.28;1.23;;;512.70;2099.20;;;;;;5088797;28;20012;-75
2024/03/29 08:32:12;;;;;;;2.38;1.00;;;512.60;2124.80;;;;;;5086255;28;20041;-75
2024/03/29 08:34:38;;;;;;;4.18;2.05;;;512.40;2124.80;;;;;;5091309;28;20046;-75
2024/03/29 08:37:04;;;;;;;3.85;1.40;;;537.70;2124.80;;;;;;5089363;28;20028;-74
2024/03/29 08:39:34;;;;;;;1.98;1.20;;;538.00;2048.00;;;;;;5092688;28;20046;-75
2024/03/29 08:42:04;;;;;;;4.75;1.85;;;538.30;2022.40;;;;;;5087794;28;20108;-75
2024/03/29 08:44:31;;;;;;;7.13;1.38;;;538.50;2073.60;;;;;;5086319;28;20457;-74
2024/03/29 08:46:58;;;;;;;4.40;2.40;;;538.50;2022.40;;;;;;5093522;28;20016;-76
2024/03/29 08:49:24;;;;;;;9.98;5.07;;;538.40;2022.40;;;;;;5068589;28;20098;-74
2024/03/29 08:51:50;;;;;;;6.82;3.17;;;538.40;1971.20;;;;;;5089055;28;20074;-74
2024/03/29 08:54:16;;;;;;;8.90;2.38;;;563.20;1920.00;;;;;;5086219;28;20036;-74
2024/03/29 08:56:42;;;;;;;4.75;1.60;;;563.50;1945.60;;;;;;5089080;28;20082;-73
2024/03/29 08:59:09;;;;;;;4.53;2.05;;;563.70;1868.80;;;;;;5091183;28;20020;-74
2024/03/29 09:01:48;;;;;;;4.18;2.10;;;563.50;1894.40;;;;;;5089148;28;20531;-74
2024/03/29 09:04:15;;;;;;;4.22;1.77;;;563.90;1843.20;;;;;;5070360;28;20025;-73
2024/03/29 09:06:42;;;;;;;7.18;2.25;;;588.80;1817.60;;;;;;5083875;28;20033;-74
2024/03/29 09:09:08;;;;;;;7.22;1.92;;;588.90;1766.40;;;;;;5093026;28;20033;-74
2024/03/29 09:11:34;;;;;;;9.00;2.05;;;589.00;1792.00;;;;;;5092204;28;20032;-73
2024/03/29 09:14:01;;;;;;;7.68;1.77;;;589.20;1766.40;;;;;;5084481;28;20036;-73
2024/03/29 09:16:27;;;;;;;3.53;1.52;;;589.20;1740.80;;;;;;5088936;28;20493;-73
2024/03/29 09:18:54;;;;;;;4.07;1.58;;;589.20;1766.40;;;;;;5084926;28;20016;-73
2024/03/29 09:21:21;;;;;;;8.40;3.38;;;589.20;1766.40;;;;;;5086385;28;20082;-75
2024/03/29 09:23:50;;;;;;;5.78;1.70;;;589.20;1792.00;;;;;;5086245;28;20435;-73
2024/03/29 09:26:16;;;;;;;5.72;1.75;;;589.20;1740.80;;;;;;5084458;28;20477;-73
2024/03/29 09:28:42;;;;;;;4.20;1.40;;;589.10;1740.80;;;;;;5088520;28;20036;-74
2024/03/29 09:31:09;;;;;;;4.72;1.80;;;589.30;1715.20;;;;;;5100515;28;20123;-74
2024/03/29 09:33:35;;;;;;;9.80;2.25;;;;;;;;;;5096168;28;20067;-74
2024/03/29 09:36:01;;;;;;;3.08;1.23;;;614.60;1689.60;;;;;;5096653;28;20020;-74
2024/03/29 09:38:27;;;;;;;3.97;1.70;;;614.50;1638.40;;;;;;5090366;28;20085;-74
2024/03/29 09:41:10;;;;;;;10.20;3.90;;;614.60;1638.40;;;;;;5091194;28;20111;-72
2024/03/29 09:43:36;;;;;;;5.28;1.98;;;614.70;1638.40;;;;;;5089182;28;20020;-72
2024/03/29 09:46:02;;;;;;;6.15;1.98;;;614.60;1612.80;;;;;;5084693;28;20039;-71
2024/03/29 09:48:36;;;;;;;14.15;2.63;;;614.70;1612.80;;;;;;5088068;28;20030;-72
2024/03/29 09:51:03;;;;;;;7.57;1.98;;;;;;;;;;5083066;28;20040;-74
2024/03/29 09:53:29;;;;;;;14.65;3.28;;;615.00;1587.20;;;;;;5080169;28;20466;-74
2024/03/29 09:55:55;;;;;;;5.00;1.45;;;615.10;1612.80;;;;;;5107127;28;20023;-72
2024/03/29 09:58:21;;;;;;;7.43;1.73;;;615.10;1561.60;;;;;;5100568;28;20019;-72
2024/03/29 10:00:47;;;;;;;8.57;2.20;;;;;;;;;;5099653;28;20021;-72
2024/03/29 10:03:14;;;;;;;7.30;2.75;;;640.10;1587.20;;;;;;5088424;28;20024;-73
2024/03/29 10:05:39;;;;;;;7.78;3.17;;;640.20;1536.00;;;;;;5094372;28;20489;-74
2024/03/29 10:08:07;;;;;;;10.10;2.67;;;640.40;1510.40;;;;;;5089171;28;20020;-72
2024/03/29 10:10:33;;;;;;;9.00;1.85;;;640.50;1510.40;;;;;;5084355;28;20020;-72
2024/03/29 10:12:59;;;;;;;13.02;2.17;;;640.30;1459.20;;;;;;5088895;28;20093;-74
2024/03/29 10:15:28;;;;;;;3.95;1.83;;;640.40;1433.60;;;;;;5084979;28;20020;-73
2024/03/29 10:17:54;;;;;;;7.63;2.33;;;640.70;1433.60;;;;;;5086971;28;20032;-73
2024/03/29 10:20:20;;;;;;;8.27;1.90;;;665.70;1408.00;;;;;;5079509;28;20436;-72
2024/03/29 10:22:46;;;;;;;7.20;2.15;;;665.90;1408.00;;;;;;5090318;28;20038;-75
2024/03/29 10:25:16;;;;;;;7.95;3.15;;;665.90;1382.40;;;;;;5082460;28;20020;-74
2024/03/29 10:27:42;;;;;;;6.90;2.13;;;666.10;1408.00;;;;;;5085295;28;20031;-72
2024/03/29 10:30:09;;;;;;;9.35;2.30;;;666.30;1382.40;;;;;;5081328;28;20020;-74
2024/03/29 10:32:40;;;;;;;15.52;2.47;;;666.30;1331.20;;;;;;5083076;28;20060;-73
2024/03/29 10:35:07;;;;;;;7.85;2.30;;;666.30;1331.20;;;;;;5092702;28;20578;-73
2024/03/29 10:37:38;;;;;;;7.32;2.17;;;666.40;1331.20;;;;;;5094191;28;20020;-76
2024/03/29 10:40:09;;;;;;;7.45;2.47;;;666.10;1356.80;;;;;;5075590;28;20197;-74
2024/03/29 10:42:37;;;;;;;7.95;2.42;;;665.90;1356.80;;;;;;5094284;28;20040;-75
2024/03/29 10:45:05;;;;;;;8.02;2.17;;;666.20;1331.20;;;;;;5096890;28;20061;-76
2024/03/29 10:47:33;;;;;;;10.10;2.47;;;665.70;1408.00;;;;;;5080491;28;20024;-73
2024/03/29 10:50:12;;;;;;;9.68;2.70;;;666.00;1356.80;;;;;;5091729;28;20045;-73
2024/03/29 10:52:43;;;;;;;9.23;2.60;;;666.50;1356.80;;;;;;5088480;28;20051;-72
2024/03/29 10:55:11;;;;;;;5.07;1.85;;;666.00;1382.40;;;;;;5088791;28;20049;-74
2024/03/29 10:57:41;;;;;;;8.05;2.15;;;665.70;1382.40;;;;;;5102399;28;20028;-74
2024/03/29 11:00:23;;;;;;;7.60;2.22;;;665.70;1356.80;;;;;;5100748;28;20031;-75
2024/03/29 11:03:03;;;;;;;11.43;2.30;;;665.80;1356.80;;;;;;5097422;28;20066;-73
2024/03/29 11:05:32;;;;;;;7.43;2.42;;;666.30;1331.20;;;;;;5083432;28;20469;-73
2024/03/29 11:08:01;;;;;;;8.70;2.50;;;665.90;1382.40;;;;;;5086510;28;20040;-74
2024/03/29 11:10:46;;;;;;;7.97;2.22;;;666.30;1356.80;;;;;;5089553;28;20057;-72
2024/03/29 11:13:30;;;;;;;6.85;2.78;;;666.50;1356.80;;;;;;5090045;28;20036;-75
2024/03/29 11:15:56;;;;;;;6.20;2.15;;;666.40;1356.80;;;;;;5088772;28;20048;-73
2024/03/29 11:18:24;;;;;;;9.55;2.10;;;666.50;1305.60;;;;;;5088616;28;20059;-73
2024/03/29 11:20:51;;;;;;;10.73;2.55;;;691.40;1280.00;;;;;;5095482;28;20024;-76
2024/03/29 11:23:20;;;;;;;7.65;1.98;;;691.70;1228.80;;;;;;5084218;28;20161;-76
2024/03/29 11:25:51;;;;;;;7.57;2.42;;;691.80;1228.80;;;;;;5093222;28;20385;-74
2024/03/29 11:28:26;;;;;;;7.65;2.20;;;691.90;1280.00;;;;;;5091292;28;20121;-73
2024/03/29 11:30:53;;;;;;;9.88;3.10;;;692.10;1280.00;;;;;;5108577;28;20036;-73
2024/03/29 11:33:30;;;;;;;7.43;2.90;;;716.80;1280.00;;;;;;5091218;28;20474;-73
2024/03/29 11:35:57;;;;;;;7.53;2.20;;;716.90;1228.80;;;;;;5092082;28;20031;-73
2024/03/29 11:38:30;;;;;;;7.57;2.22;;;692.10;1228.80;;;;;;5089783;28;20020;-72
2024/03/29 11:41:14;;;;;;;12.30;2.00;;;692.00;1254.40;;;;;;5089654;28;20081;-73
2024/03/29 11:43:42;;;;;;;8.23;2.75;;;716.90;1228.80;;;;;;5083262;28;20493;-74
2024/03/29 11:46:09;;;;;;;10.35;2.65;;;717.00;1203.20;;;;;;5088848;28;20016;-73
2024/03/29 11:48:36;;;;;;;14.55;3.92;;;717.10;1203.20;;;;;;5086896;28;20035;-73
2024/03/29 11:51:14;;;;;;;9.20;2.72;;;716.90;1152.00;;;;;;5091320;28;20032;-72
2024/03/29 11:53:40;;;;;;;10.57;2.53;;;717.20;1100.80;;;;;;5088709;28;20024;-73
2024/03/29 11:56:06;;;;;;;10.32;2.40;;;717.40;1126.40;;;;;;5108224;28;20104;-73
2024/03/29 11:58:33;;;;;;;8.95;2.17;;;717.70;1126.40;;;;;;5089197;28;20024;-72
2024/03/29 12:01:00;;;;;;;10.65;2.60;;;742.40;1126.40;;;;;;5095842;28;20070;-72
2024/03/29 12:03:31;;;;;;;8.50;2.55;;;742.70;1177.60;;;;;;5084896;28;20469;-73
2024/03/29 12:05:58;;;;;;;4.32;2.08;;;717.70;1152.00;;;;;;5094758;28;20472;-73
2024/03/29 12:08:35;;;;;;;5.80;2.00;;;742.40;1177.60;;;;;;5095518;28;20050;-75
2024/03/29 12:11:02;;;;;;;10.90;2.67;;;717.30;1177.60;;;;;;5079299;28;20027;-75
2024/03/29 12:13:29;;;;;;;7.25;2.35;;;717.60;1152.00;;;;;;5088751;28;20094;-73
2024/03/29 12:15:56;;;;;;;8.07;3.17;;;742.40;1152.00;;;;;;5092120;28;20022;-76
2024/03/29 12:18:23;;;;;;;6.05;2.28;;;717.40;1177.60;;;;;;5085039;28;20059;-73
2024/03/29 12:20:50;;;;;;;6.65;2.05;;;717.40;1203.20;;;;;;5068947;28;20063;-76
2024/03/29 12:23:17;;;;;;;6.78;1.63;;;717.10;1177.60;;;;;;5092875;28;20032;-73